createdAt,value
2018-09-11T08:07:53.789Z,9.27
2018-09-11T08:10:21.121Z,10.17
2018-09-11T08:12:48.466Z,9.67
2018-09-11T08:15:15.861Z,7.90
2018-09-11T08:17:43.326Z,7.50
2018-09-11T08:20:10.618Z,9.47
2018-09-11T08:22:37.895Z,8.73
2018-09-11T08:25:05.581Z,7.00
2018-09-11T08:27:32.885Z,8.83
2018-09-11T08:30:00.488Z,9.83
2018-09-11T08:32:28.642Z,7.37
2018-09-11T08:34:56.129Z,6.00
2018-09-11T08:37:23.564Z,8.90
2018-09-11T08:39:50.957Z,9.67
2018-09-11T08:42:18.397Z,7.67
2018-09-11T08:44:45.688Z,8.70
2018-09-11T08:47:13.047Z,7.77
2018-09-11T08:49:40.550Z,5.87
2018-09-11T08:52:07.928Z,11.23
2018-09-11T08:54:35.805Z,7.83
2018-09-11T08:57:03.109Z,7.70
2018-09-11T08:59:30.633Z,6.33
2018-09-11T09:01:58.083Z,9.00
2018-09-11T09:04:31.258Z,8.00
2018-09-11T09:06:59.084Z,7.83
2018-09-11T09:09:26.661Z,6.10
2018-09-11T09:11:54.058Z,8.20
2018-09-11T09:14:21.528Z,8.47
2018-09-11T09:16:49.184Z,9.40
2018-09-11T09:19:16.620Z,6.57
2018-09-11T09:21:43.957Z,10.63
2018-09-11T09:24:11.348Z,7.23
2018-09-11T09:26:38.673Z,8.73
2018-09-11T09:29:06.025Z,9.50
2018-09-11T09:31:33.372Z,7.93
2018-09-11T09:34:01.418Z,8.57
2018-09-11T09:36:28.752Z,7.67
2018-09-11T09:38:56.108Z,6.67
2018-09-11T09:41:24.237Z,9.60
2018-09-11T09:43:51.730Z,7.13
2018-09-11T09:46:19.904Z,7.13
2018-09-11T09:48:47.334Z,7.00
2018-09-11T09:51:14.765Z,7.47
2018-09-11T09:53:42.106Z,8.13
2018-09-11T09:56:09.417Z,8.23
2018-09-11T09:58:37.558Z,10.47
2018-09-11T10:01:10.575Z,6.83
2018-09-11T10:03:37.889Z,9.30
2018-09-11T10:06:05.220Z,10.70
2018-09-11T10:08:32.946Z,8.07
2018-09-11T10:11:00.427Z,8.57
2018-09-11T10:13:28.589Z,10.60
2018-09-11T10:15:55.893Z,11.17
2018-09-11T10:18:24.238Z,7.37
2018-09-11T10:20:51.626Z,7.97
2018-09-11T10:23:19.028Z,7.97
2018-09-11T10:25:46.478Z,8.57
2018-09-11T10:28:13.922Z,12.67
2018-09-11T10:30:41.518Z,9.40
2018-09-11T10:33:08.903Z,10.00
2018-09-11T10:35:36.276Z,4.47
2018-09-11T10:38:03.882Z,6.73
2018-09-11T10:40:31.576Z,6.97
2018-09-11T10:42:59.124Z,7.90
2018-09-11T10:45:27.271Z,7.50
2018-09-11T10:47:55.767Z,7.57
2018-09-11T10:50:23.063Z,6.33
2018-09-11T10:52:50.457Z,5.93
2018-09-11T10:55:17.796Z,6.17
2018-09-11T10:57:45.353Z,8.40
2018-09-11T11:00:12.855Z,8.17
2018-09-11T11:02:40.554Z,5.50
2018-09-11T11:05:08.164Z,7.47
2018-09-11T11:10:13.523Z,5.93
2018-09-11T11:12:41.043Z,6.67
2018-09-11T11:15:08.547Z,7.40
2018-09-11T11:17:35.933Z,9.30
2018-09-11T11:20:03.203Z,9.43
2018-09-11T11:22:30.799Z,9.80
2018-09-11T11:24:58.173Z,7.67
2018-09-11T11:27:25.551Z,8.83
2018-09-11T11:29:53.663Z,7.30
2018-09-11T11:32:21.270Z,10.63
2018-09-11T11:34:48.573Z,6.93
2018-09-11T11:37:16.117Z,10.33
2018-09-11T11:39:43.421Z,9.90
2018-09-11T11:42:11.068Z,11.37
2018-09-11T11:44:38.470Z,9.13
2018-09-11T11:47:06.083Z,13.03
2018-09-11T11:49:33.542Z,7.73
2018-09-11T11:52:01.139Z,6.43
2018-09-11T11:54:28.477Z,6.17
2018-09-11T11:56:55.814Z,8.53
2018-09-11T11:59:23.287Z,7.50
2018-09-11T12:01:50.873Z,8.80
2018-09-11T12:04:18.245Z,5.90
2018-09-11T12:06:45.643Z,7.67
2018-09-11T12:09:13.063Z,9.70
2018-09-11T12:11:40.598Z,12.60
2018-09-11T12:14:07.997Z,9.47
2018-09-11T12:16:35.348Z,10.33
2018-09-11T12:19:02.731Z,9.40
2018-09-11T12:21:30.219Z,8.53
2018-09-11T12:23:57.642Z,8.03
2018-09-11T12:26:25.683Z,6.97
2018-09-11T12:28:53.582Z,8.43
2018-09-11T12:31:21.122Z,8.10
2018-09-11T12:33:50.533Z,9.47
2018-09-11T12:36:17.841Z,7.10
2018-09-11T12:38:45.340Z,7.73
2018-09-11T12:41:12.675Z,8.17
2018-09-11T12:43:40.223Z,13.57
2018-09-11T12:46:07.966Z,9.97
2018-09-11T12:48:35.393Z,10.73
2018-09-11T12:51:02.632Z,8.10
2018-09-11T12:53:30.089Z,9.50
2018-09-11T12:55:57.541Z,11.30
2018-09-11T12:58:24.991Z,8.93
2018-09-11T13:00:52.414Z,10.40
2018-09-11T13:03:20.374Z,9.17
2018-09-11T13:05:47.799Z,7.07
2018-09-11T13:08:15.126Z,10.07
2018-09-11T13:10:42.523Z,11.10
2018-09-11T13:13:09.880Z,10.67
2018-09-11T13:15:37.965Z,11.67
2018-09-11T13:18:05.320Z,13.23
2018-09-11T13:20:32.736Z,9.40
2018-09-11T13:23:00.260Z,8.83
2018-09-11T13:25:27.804Z,10.00
2018-09-11T13:27:55.191Z,7.90
2018-09-11T13:30:22.643Z,13.80
2018-09-11T13:32:50.033Z,10.67
2018-09-11T13:35:17.315Z,11.87
2018-09-11T13:37:44.678Z,13.60
2018-09-11T13:40:12.159Z,12.37
2018-09-11T13:42:39.637Z,14.07
2018-09-11T13:45:07.086Z,10.23
2018-09-11T13:47:34.618Z,9.73
2018-09-11T13:50:01.966Z,11.33
2018-09-11T13:52:29.356Z,16.20
2018-09-11T13:54:56.682Z,14.60
2018-09-11T13:57:24.109Z,15.00
2018-09-11T13:59:52.276Z,13.57
2018-09-11T14:02:20.000Z,15.37
2018-09-11T14:04:47.366Z,14.63
2018-09-11T14:07:15.142Z,12.33
2018-09-11T14:09:43.081Z,13.27
2018-09-11T14:12:10.521Z,15.03
2018-09-11T14:14:37.864Z,14.67
2018-09-11T14:17:05.388Z,11.10
2018-09-11T14:19:32.795Z,16.17
2018-09-11T14:22:00.234Z,14.60
2018-09-11T14:24:27.820Z,12.40
2018-09-11T14:26:55.695Z,11.97
2018-09-11T14:29:23.153Z,12.40
2018-09-11T14:31:50.638Z,9.23
2018-09-11T14:34:18.728Z,11.97
2018-09-11T14:36:46.272Z,12.88
2018-09-11T14:39:13.995Z,11.50
2018-09-11T14:41:41.377Z,12.23
2018-09-11T14:44:09.014Z,10.60
2018-09-11T14:46:36.763Z,12.83
2018-09-11T14:49:04.648Z,12.70
2018-09-11T14:51:32.278Z,11.80
2018-09-11T14:54:00.101Z,17.83
2018-09-11T14:56:27.625Z,20.97
2018-09-11T14:58:55.918Z,13.87
2018-09-11T15:01:23.848Z,16.80
2018-09-11T15:03:51.455Z,15.20
2018-09-11T15:06:18.993Z,14.70
2018-09-11T15:08:46.915Z,15.47
2018-09-11T15:11:14.673Z,15.07
2018-09-11T15:13:42.414Z,14.60
2018-09-11T15:16:10.094Z,18.17
2018-09-11T15:18:37.810Z,15.07
2018-09-11T15:21:05.295Z,15.83
2018-09-11T15:23:32.779Z,14.00
2018-09-11T15:26:00.353Z,14.50
2018-09-11T15:28:27.782Z,12.00
2018-09-11T15:30:55.306Z,13.70
2018-09-11T15:33:23.046Z,12.10
2018-09-11T15:35:54.689Z,15.73
2018-09-11T15:38:22.570Z,13.83
2018-09-11T15:40:50.444Z,14.50
2018-09-11T15:43:18.203Z,18.23
2018-09-11T15:45:46.423Z,16.20
2018-09-11T15:48:14.579Z,21.37
2018-09-11T15:50:42.440Z,12.50
2018-09-11T15:53:09.877Z,12.67
2018-09-11T15:55:37.519Z,17.43
2018-09-11T15:58:04.882Z,15.90
2018-09-11T16:00:32.283Z,19.93
2018-09-11T16:03:00.476Z,14.87
2018-09-11T16:05:27.899Z,15.17
2018-09-11T16:07:55.760Z,17.97
2018-09-11T16:10:23.324Z,12.67
2018-09-11T16:12:50.810Z,15.87
2018-09-11T16:15:18.171Z,21.13
2018-09-11T16:17:45.693Z,16.77
2018-09-11T16:20:13.461Z,16.43
2018-09-11T16:22:41.250Z,17.43
2018-09-11T16:25:08.643Z,17.50
2018-09-11T16:27:36.143Z,13.57
2018-09-11T16:30:03.830Z,15.93
2018-09-11T16:32:31.246Z,18.07
2018-09-11T16:34:58.705Z,15.87
2018-09-11T16:37:26.054Z,14.87
2018-09-11T16:39:53.492Z,13.37
2018-09-11T16:42:21.004Z,17.47
2018-09-11T16:44:48.409Z,13.23
2018-09-11T16:47:15.860Z,15.80
2018-09-11T16:49:43.593Z,15.00
2018-09-11T16:52:10.981Z,16.97
2018-09-11T16:54:38.329Z,14.43
2018-09-11T16:57:05.669Z,15.53
2018-09-11T16:59:33.906Z,10.47
2018-09-11T17:02:02.130Z,13.47
2018-09-11T17:04:29.624Z,13.10
2018-09-11T17:06:57.082Z,13.37
2018-09-11T17:09:25.095Z,12.37
2018-09-11T17:11:52.704Z,12.30
2018-09-11T17:14:20.151Z,9.67
2018-09-11T17:16:47.564Z,12.33
2018-09-11T17:19:15.161Z,9.77
2018-09-11T17:21:42.609Z,12.40
2018-09-11T17:24:10.478Z,12.80
2018-09-11T17:26:38.450Z,11.07
2018-09-11T17:29:05.800Z,9.13
2018-09-11T17:31:33.202Z,12.67
2018-09-11T17:34:00.541Z,16.27
2018-09-11T17:36:28.123Z,14.90
2018-09-11T17:38:55.810Z,16.73
2018-09-11T17:41:23.303Z,17.53
2018-09-11T17:43:51.287Z,12.00
2018-09-11T17:46:18.818Z,15.60
2018-09-11T17:48:46.376Z,11.03
2018-09-11T17:51:14.251Z,14.50
2018-09-11T17:53:41.700Z,14.50
2018-09-11T17:56:09.280Z,11.93
2018-09-11T17:58:36.852Z,13.80
2018-09-11T18:01:04.467Z,13.43
2018-09-11T18:03:32.014Z,15.43
2018-09-11T18:06:00.577Z,15.60
2018-09-11T18:08:28.319Z,17.80
2018-09-11T18:10:55.964Z,21.40
2018-09-11T18:13:23.741Z,18.83
2018-09-11T18:15:52.429Z,15.40
2018-09-11T18:18:21.511Z,14.40
2018-09-11T18:20:48.876Z,17.80
2018-09-11T18:23:16.727Z,22.27
2018-09-11T18:25:45.137Z,21.23
2018-09-11T18:28:12.573Z,18.43
2018-09-11T18:30:40.170Z,23.20
2018-09-11T18:33:07.736Z,20.00
2018-09-11T18:35:35.064Z,20.40
2018-09-11T18:38:02.584Z,21.90
2018-09-11T18:40:29.882Z,18.43
2018-09-11T18:42:57.441Z,14.80
2018-09-11T18:45:24.822Z,21.17
2018-09-11T18:47:52.512Z,22.53
2018-09-11T18:50:19.887Z,15.53
2018-09-11T18:52:47.483Z,18.00
2018-09-11T18:55:15.430Z,19.97
2018-09-11T18:57:42.821Z,17.67
2018-09-11T19:00:10.452Z,15.33
2018-09-11T19:02:37.800Z,12.77
2018-09-11T19:05:05.213Z,16.83
2018-09-11T19:07:32.674Z,12.90
2018-09-11T19:10:00.031Z,15.47
2018-09-11T19:12:27.637Z,14.40
2018-09-11T19:14:55.593Z,16.00
2018-09-11T19:17:22.874Z,13.13
2018-09-11T19:19:50.253Z,12.70
2018-09-11T19:22:17.720Z,13.57
2018-09-11T19:24:45.194Z,15.10
2018-09-11T19:27:13.289Z,15.60
2018-09-11T19:29:40.710Z,15.97
2018-09-11T19:32:08.035Z,18.13
2018-09-11T19:34:35.378Z,16.70
2018-09-11T19:37:02.775Z,14.70
2018-09-11T19:39:30.180Z,17.47
2018-09-11T19:41:57.513Z,18.07
2018-09-11T19:44:25.720Z,17.10
2018-09-11T19:46:53.168Z,17.70
2018-09-11T19:49:20.487Z,20.50
2018-09-11T19:51:48.526Z,19.17
2018-09-11T19:54:15.905Z,16.70
2018-09-11T19:56:43.373Z,19.23
2018-09-11T19:59:10.855Z,15.73
2018-09-11T20:01:38.163Z,19.60
2018-09-11T20:04:05.506Z,20.77
2018-09-11T20:06:32.769Z,19.47
2018-09-11T20:09:00.276Z,14.67
2018-09-11T20:11:27.617Z,16.37
2018-09-11T20:13:55.045Z,18.10
2018-09-11T20:16:22.409Z,17.83
2018-09-11T20:18:56.151Z,19.53
2018-09-11T20:21:39.508Z,18.87
2018-09-11T20:24:07.791Z,19.53
2018-09-11T20:26:35.180Z,16.17
2018-09-11T20:29:02.568Z,18.70
2018-09-11T20:31:29.993Z,19.17
2018-09-11T20:33:57.583Z,15.73
2018-09-11T20:36:25.191Z,17.90
2018-09-11T20:38:52.506Z,17.70
2018-09-11T20:41:24.063Z,14.37
2018-09-11T20:43:51.715Z,17.83
2018-09-11T20:46:19.068Z,17.67
2018-09-11T20:48:46.585Z,14.30
2018-09-11T20:51:13.893Z,14.00
2018-09-11T20:53:41.275Z,14.27
2018-09-11T20:56:08.651Z,14.93
2018-09-11T20:58:36.638Z,15.40
2018-09-11T21:01:03.982Z,21.37
2018-09-11T21:03:31.330Z,16.83
2018-09-11T21:05:58.863Z,15.97
2018-09-11T21:08:26.414Z,18.40
2018-09-11T21:10:53.756Z,15.23
2018-09-11T21:13:21.159Z,14.03
2018-09-11T21:15:48.578Z,16.30
2018-09-11T21:18:16.024Z,16.33
2018-09-11T21:20:43.389Z,14.63
2018-09-11T21:23:11.054Z,18.60
2018-09-11T21:25:39.463Z,15.90
2018-09-11T21:28:07.633Z,10.60
2018-09-11T21:30:35.000Z,15.13
2018-09-11T21:33:02.408Z,16.60
2018-09-11T21:35:29.851Z,11.70
2018-09-11T21:37:58.101Z,12.70
2018-09-11T21:40:25.530Z,15.70
2018-09-11T21:42:53.160Z,12.67
2018-09-11T21:45:21.606Z,16.80
2018-09-11T21:47:49.002Z,12.97
2018-09-11T21:50:16.672Z,14.73
2018-09-11T21:52:44.009Z,15.40
2018-09-11T21:55:11.441Z,13.20
2018-09-11T21:57:38.767Z,15.63
2018-09-11T22:00:08.688Z,12.30
2018-09-11T22:02:36.539Z,15.50
2018-09-11T22:05:03.967Z,14.60
2018-09-11T22:07:31.523Z,18.57
2018-09-11T22:09:58.984Z,18.40
2018-09-11T22:12:26.249Z,16.13
2018-09-11T22:14:53.625Z,19.07
2018-09-11T22:17:21.547Z,18.40
2018-09-11T22:19:48.905Z,20.63
2018-09-11T22:22:16.355Z,15.67
2018-09-11T22:24:43.826Z,17.27
2018-09-11T22:27:11.133Z,19.37
2018-09-11T22:29:38.513Z,19.43
2018-09-11T22:32:05.928Z,20.60
2018-09-11T22:34:33.345Z,19.63
2018-09-11T22:37:00.634Z,20.83
2018-09-11T22:39:27.930Z,17.10
2018-09-11T22:41:55.352Z,18.10
2018-09-11T22:44:22.755Z,17.53
2018-09-11T22:46:50.123Z,19.63
2018-09-11T22:49:17.449Z,16.40
2018-09-11T22:51:44.738Z,19.80
2018-09-11T22:54:12.279Z,20.80
2018-09-11T22:56:39.970Z,21.43
2018-09-11T22:59:07.382Z,20.40
2018-09-11T23:01:34.797Z,18.57
2018-09-11T23:04:02.269Z,17.07
2018-09-11T23:06:29.633Z,18.10
2018-09-11T23:08:57.137Z,26.20
2018-09-11T23:11:24.416Z,17.90
2018-09-11T23:13:51.774Z,16.67
2018-09-11T23:16:19.073Z,18.83
2018-09-11T23:18:46.477Z,18.57
2018-09-11T23:21:13.858Z,18.73
2018-09-11T23:23:42.973Z,21.40
2018-09-11T23:26:10.247Z,22.47
2018-09-11T23:28:37.589Z,22.00
2018-09-11T23:31:04.856Z,16.53
2018-09-11T23:33:32.115Z,18.10
2018-09-11T23:35:59.411Z,19.07
2018-09-11T23:38:26.701Z,18.83
2018-09-11T23:40:54.002Z,23.47
2018-09-11T23:43:21.396Z,15.40
2018-09-11T23:45:48.755Z,18.90
2018-09-11T23:48:16.157Z,16.03
2018-09-11T23:50:43.503Z,18.13
2018-09-11T23:53:10.854Z,15.17
2018-09-11T23:55:38.087Z,16.67
2018-09-11T23:58:05.385Z,15.67
